createdAt,value
2022-12-06T00:05:36.142Z,10.39
2022-12-06T00:11:28.516Z,10.41
2022-12-06T00:17:11.404Z,10.4
2022-12-06T00:22:54.407Z,10.38
2022-12-06T00:28:37.859Z,10.4
2022-12-06T00:34:20.617Z,10.39
2022-12-06T00:40:04.158Z,10.39
2022-12-06T00:45:47.403Z,10.41
2022-12-06T00:51:31.419Z,10.41
2022-12-06T00:57:14.446Z,10.4
2022-12-06T01:02:57.858Z,10.4
2022-12-06T01:08:41.735Z,10.44
2022-12-06T01:14:25.701Z,10.44
2022-12-06T01:20:09.747Z,10.44
2022-12-06T01:25:53.276Z,10.45
2022-12-06T01:31:39.296Z,10.45
2022-12-06T01:37:22.397Z,10.49
2022-12-06T01:43:05.528Z,10.47
2022-12-06T01:48:50.930Z,10.49
2022-12-06T01:54:34.463Z,10.5
2022-12-06T02:00:18.276Z,10.49
2022-12-06T02:06:01.813Z,10.52
2022-12-06T02:11:44.872Z,10.52
2022-12-06T02:17:37.320Z,10.49
2022-12-06T02:23:32.773Z,10.56
2022-12-06T02:29:32.987Z,10.58
2022-12-06T02:35:20.404Z,10.61
2022-12-06T02:41:08.253Z,10.61
2022-12-06T02:46:52.873Z,10.59
2022-12-06T02:52:37.709Z,10.58
2022-12-06T02:58:20.834Z,10.57
2022-12-06T03:04:11.243Z,10.58
2022-12-06T03:10:03.496Z,10.61
2022-12-06T03:15:53.367Z,10.62
2022-12-06T03:21:40.904Z,10.62
2022-12-06T03:27:25.088Z,10.61
2022-12-06T03:33:09.384Z,10.64
2022-12-06T03:38:54.056Z,10.62
2022-12-06T03:44:37.511Z,10.62
2022-12-06T03:50:22.609Z,10.63
2022-12-06T03:56:06.125Z,10.63
2022-12-06T04:01:49.151Z,10.62
2022-12-06T04:07:32.506Z,10.62
2022-12-06T04:13:19.540Z,10.62
2022-12-06T04:19:03.097Z,10.64
2022-12-06T04:24:45.886Z,10.64
2022-12-06T04:30:29.094Z,10.65
2022-12-06T04:36:13.317Z,10.66
2022-12-06T04:41:56.744Z,10.67
2022-12-06T04:47:39.549Z,10.67
2022-12-06T04:53:22.523Z,10.68
2022-12-06T04:59:05.769Z,10.68
2022-12-06T05:04:48.897Z,10.7
2022-12-06T05:10:31.821Z,10.72
2022-12-06T05:16:14.884Z,10.7
2022-12-06T05:21:57.974Z,10.71
2022-12-06T05:27:40.957Z,10.71
2022-12-06T05:33:24.743Z,10.73
2022-12-06T05:39:07.652Z,10.79
2022-12-06T05:44:50.627Z,10.79
2022-12-06T05:50:33.735Z,10.78
2022-12-06T05:56:16.553Z,10.8
2022-12-06T06:02:00.835Z,10.8
2022-12-06T06:07:44.291Z,10.81
2022-12-06T06:13:27.486Z,10.8
2022-12-06T06:19:10.450Z,10.82
2022-12-06T06:24:54.350Z,10.81
2022-12-06T06:30:37.297Z,10.85
2022-12-06T06:36:20.380Z,10.92
2022-12-06T06:42:03.484Z,10.95
2022-12-06T06:47:46.631Z,11.21
2022-12-06T06:53:29.647Z,11.32
2022-12-06T06:59:12.535Z,11.11
2022-12-06T07:04:56.641Z,10.98
2022-12-06T07:10:39.609Z,10.93
2022-12-06T07:16:22.862Z,10.89
2022-12-06T07:22:06.035Z,10.89
2022-12-06T07:27:49.054Z,10.86
2022-12-06T07:33:32.078Z,10.85
2022-12-06T07:39:15.271Z,10.9
2022-12-06T07:45:01.868Z,10.9
2022-12-06T07:50:45.805Z,10.91
2022-12-06T07:56:28.864Z,10.92
2022-12-06T08:02:16.747Z,10.94
2022-12-06T08:07:59.809Z,11.03
2022-12-06T08:13:43.094Z,11.05
2022-12-06T08:19:26.430Z,11.06
2022-12-06T08:25:09.777Z,11.09
2022-12-06T08:30:55.980Z,11.13
2022-12-06T08:36:45.658Z,11.23
2022-12-06T08:42:30.571Z,11.29
2022-12-06T08:48:13.445Z,11.66
2022-12-06T08:53:56.981Z,11.59
2022-12-06T08:59:39.529Z,11.59
2022-12-06T09:05:22.709Z,11.53
2022-12-06T09:11:06.665Z,11.54
2022-12-06T09:16:50.366Z,11.57
2022-12-06T09:22:34.441Z,11.62
2022-12-06T09:28:17.217Z,11.7
2022-12-06T09:34:00.250Z,11.73
2022-12-06T09:39:44.356Z,11.84
2022-12-06T09:45:31.885Z,11.89
2022-12-06T09:51:18.951Z,11.96
2022-12-06T09:57:07.282Z,11.98
2022-12-06T10:02:58.722Z,12.05
2022-12-06T10:08:56.023Z,12.16
2022-12-06T10:14:49.450Z,12.25
2022-12-06T10:20:38.176Z,12.35
2022-12-06T10:26:25.488Z,12.41
2022-12-06T10:32:14.483Z,12.44
2022-12-06T10:38:05.949Z,12.49
2022-12-06T10:43:53.977Z,12.47
2022-12-06T10:49:43.903Z,12.46
2022-12-06T10:55:31.317Z,12.45
2022-12-06T11:01:17.711Z,12.44
2022-12-06T11:07:02.614Z,12.43
2022-12-06T11:12:46.042Z,12.44
2022-12-06T11:18:29.649Z,12.51
2022-12-06T11:24:16.431Z,12.56
2022-12-06T11:30:01.530Z,12.56
2022-12-06T11:35:45.896Z,12.62
2022-12-06T11:41:33.076Z,12.6
2022-12-06T11:47:19.033Z,12.71
2022-12-06T11:53:05.106Z,12.88
2022-12-06T11:58:52.485Z,12.87
2022-12-06T12:04:40.262Z,12.96
2022-12-06T12:10:30.311Z,12.94
2022-12-06T12:16:18.686Z,12.97
2022-12-06T12:22:07.298Z,13.05
2022-12-06T12:27:51.600Z,13.21
2022-12-06T12:33:34.781Z,13.33
2022-12-06T12:39:28.041Z,13.47
2022-12-06T12:45:17.026Z,13.73
2022-12-06T12:51:01.815Z,13.84
2022-12-06T12:56:45.058Z,13.72
2022-12-06T13:02:30.236Z,13.77
2022-12-06T13:08:16.246Z,13.8
2022-12-06T13:14:00.248Z,13.68
2022-12-06T13:19:48.863Z,13.67
2022-12-06T13:25:40.025Z,13.64
2022-12-06T13:31:24.864Z,13.57
2022-12-06T13:37:16.689Z,13.5
2022-12-06T13:43:00.339Z,13.45
2022-12-06T13:48:47.791Z,13.42
2022-12-06T13:54:35.435Z,13.37
2022-12-06T14:00:29.248Z,13.33
2022-12-06T14:06:15.590Z,13.33
2022-12-06T14:11:59.109Z,13.31
2022-12-06T14:18:13.222Z,13.26
2022-12-06T14:23:48.429Z,13.27
2022-12-06T14:29:32.510Z,13.23
2022-12-06T14:35:17.195Z,13.24
2022-12-06T14:41:00.303Z,13.24
2022-12-06T14:46:44.016Z,13.22
2022-12-06T14:52:28.897Z,13.21
2022-12-06T14:58:20.280Z,13.14
2022-12-06T15:04:04.924Z,13.09
2022-12-06T15:09:48.557Z,13.04
2022-12-06T15:15:36.284Z,12.91
2022-12-06T15:21:19.553Z,12.82
2022-12-06T15:27:02.803Z,12.73
2022-12-06T15:32:45.895Z,12.61
2022-12-06T15:38:29.281Z,12.55
2022-12-06T15:44:14.539Z,12.45
2022-12-06T15:49:57.482Z,12.37
2022-12-06T15:55:40.688Z,12.28
2022-12-06T16:01:26.248Z,12.2
2022-12-06T16:07:11.631Z,12.23
2022-12-06T16:12:55.129Z,12.1
2022-12-06T16:18:38.157Z,12
2022-12-06T16:24:21.433Z,11.92
2022-12-06T16:30:06.373Z,11.85
2022-12-06T16:35:52.007Z,11.81
2022-12-06T16:41:35.999Z,11.76
2022-12-06T16:52:59.924Z,11.68
2022-12-06T16:58:42.826Z,11.66
2022-12-06T17:04:25.513Z,11.63
2022-12-06T17:10:09.661Z,11.6
2022-12-06T17:15:53.294Z,11.57
2022-12-06T17:21:36.938Z,11.57
2022-12-06T17:27:19.894Z,11.55
2022-12-06T17:33:03.050Z,11.57
2022-12-06T17:38:46.152Z,11.61
2022-12-06T17:44:29.377Z,11.59
2022-12-06T17:50:12.746Z,11.58
2022-12-06T17:55:55.951Z,11.6
2022-12-06T18:02:06.477Z,11.58
2022-12-06T18:07:41.921Z,11.63
2022-12-06T18:13:29.049Z,11.58
2022-12-06T18:19:12.950Z,11.52
2022-12-06T18:24:55.892Z,11.5
2022-12-06T18:30:39.331Z,11.47
2022-12-06T18:36:22.392Z,11.48
2022-12-06T18:42:05.511Z,11.45
2022-12-06T18:47:48.305Z,11.43
2022-12-06T18:53:32.408Z,11.4
2022-12-06T18:59:15.976Z,11.4
2022-12-06T19:05:06.052Z,11.39
2022-12-06T19:10:50.334Z,11.38
2022-12-06T19:16:34.141Z,11.34
2022-12-06T19:22:17.714Z,11.31
2022-12-06T19:28:02.632Z,11.29
2022-12-06T19:33:47.543Z,11.28
2022-12-06T19:39:30.854Z,11.3
2022-12-06T19:45:14.398Z,11.27
2022-12-06T19:50:57.735Z,11.23
2022-12-06T19:56:41.360Z,11.19
2022-12-06T20:02:25.500Z,11.18
2022-12-06T20:08:10.030Z,11.18
2022-12-06T20:13:53.625Z,11.19
2022-12-06T20:19:36.662Z,11.19
2022-12-06T20:25:20.110Z,11.18
2022-12-06T20:31:08.331Z,11.14
2022-12-06T20:36:51.990Z,11.17
2022-12-06T20:42:35.362Z,11.11
2022-12-06T20:48:18.641Z,11.06
2022-12-06T20:54:02.465Z,11.04
2022-12-06T20:59:45.809Z,11.05
2022-12-06T21:05:31.679Z,11.06
2022-12-06T21:11:23.511Z,11.06
2022-12-06T21:17:07.288Z,11.05
2022-12-06T21:22:50.680Z,11.07
2022-12-06T21:28:33.549Z,11.07
2022-12-06T21:34:16.516Z,11.07
2022-12-06T21:40:00.179Z,11.04
2022-12-06T21:45:45.471Z,11.02
2022-12-06T21:51:29.913Z,11
2022-12-06T21:57:13.377Z,10.98
2022-12-06T22:02:57.974Z,10.96
2022-12-06T22:08:42.585Z,10.95
2022-12-06T22:14:25.650Z,10.9
2022-12-06T22:20:10.668Z,10.88
2022-12-06T22:25:54.417Z,10.93
2022-12-06T22:31:39.127Z,10.91
2022-12-06T22:37:28.278Z,10.93
2022-12-06T22:43:11.488Z,10.93
2022-12-06T22:48:54.990Z,10.9
2022-12-06T22:54:38.065Z,10.89
2022-12-06T23:00:21.129Z,10.86
2022-12-06T23:06:04.647Z,10.89
2022-12-06T23:11:47.728Z,10.9
2022-12-06T23:17:32.518Z,10.87
2022-12-06T23:23:15.856Z,10.85
2022-12-06T23:28:59.123Z,10.83
2022-12-06T23:34:42.119Z,10.84
2022-12-06T23:40:25.208Z,10.86
2022-12-06T23:46:09.824Z,10.84
2022-12-06T23:51:53.470Z,10.84
2022-12-06T23:57:36.828Z,10.85
